createdAt,value
2022-11-24T00:01:27.742Z,5.90
2022-11-24T00:04:05.482Z,6.15
2022-11-24T00:06:34.520Z,6.07
2022-11-24T00:09:01.833Z,5.95
2022-11-24T00:11:30.778Z,6.15
2022-11-24T00:13:58.532Z,6.14
2022-11-24T00:16:30.730Z,6.09
2022-11-24T00:18:59.656Z,6.00
2022-11-24T00:21:28.610Z,5.92
2022-11-24T00:23:56.162Z,5.88
2022-11-24T00:26:45.964Z,6.21
2022-11-24T00:29:12.811Z,6.05
2022-11-24T00:31:41.721Z,6.25
2022-11-24T00:34:13.906Z,6.49
2022-11-24T00:36:41.727Z,6.57
2022-11-24T00:39:12.051Z,6.55
2022-11-24T00:41:39.412Z,6.72
2022-11-24T00:44:06.901Z,6.65
2022-11-24T00:46:34.399Z,6.81
2022-11-24T00:49:01.802Z,6.97
2022-11-24T00:51:30.918Z,6.75
2022-11-24T00:53:59.118Z,6.72
2022-11-24T00:56:27.431Z,6.79
2022-11-24T00:58:54.240Z,6.89
2022-11-24T01:01:24.411Z,6.74
2022-11-24T01:03:54.555Z,6.82
2022-11-24T01:06:24.785Z,7.11
2022-11-24T01:08:52.723Z,6.71
2022-11-24T01:11:25.543Z,7.03
2022-11-24T01:13:55.646Z,6.82
2022-11-24T01:16:32.545Z,7.02
2022-11-24T01:18:59.680Z,6.76
2022-11-24T01:21:26.519Z,6.94
2022-11-24T01:23:53.333Z,6.81
2022-11-24T01:26:21.932Z,6.91
2022-11-24T01:28:55.090Z,7.22
2022-11-24T01:31:22.838Z,7.00
2022-11-24T01:33:49.634Z,7.07
2022-11-24T01:36:16.435Z,7.16
2022-11-24T01:38:43.201Z,7.01
2022-11-24T01:41:20.705Z,7.38
2022-11-24T01:43:48.587Z,7.25
2022-11-24T01:46:38.281Z,7.44
2022-11-24T01:49:22.772Z,7.52
2022-11-24T01:51:55.791Z,7.43
2022-11-24T01:54:30.833Z,7.44
2022-11-24T01:57:03.105Z,7.51
2022-11-24T01:59:30.591Z,7.48
2022-11-24T02:01:57.777Z,7.46
2022-11-24T02:04:30.009Z,7.72
2022-11-24T02:06:59.357Z,7.44
2022-11-24T02:09:45.109Z,7.71
2022-11-24T02:12:11.950Z,7.41
2022-11-24T02:14:41.859Z,7.39
2022-11-24T02:17:08.785Z,7.20
2022-11-24T02:19:41.547Z,7.44
2022-11-24T02:22:22.934Z,7.39
2022-11-24T02:25:28.127Z,7.47
2022-11-24T02:27:56.579Z,7.23
2022-11-24T02:30:23.859Z,7.18
2022-11-24T02:32:51.729Z,7.31
2022-11-24T02:35:19.228Z,7.20
2022-11-24T02:37:45.988Z,7.19
2022-11-24T02:40:16.338Z,7.32
2022-11-24T02:42:46.143Z,7.28
2022-11-24T02:45:15.263Z,7.51
2022-11-24T02:47:41.962Z,7.05
2022-11-24T02:50:08.889Z,7.18
2022-11-24T02:52:36.238Z,7.46
2022-11-24T02:55:06.141Z,7.55
2022-11-24T02:57:35.973Z,7.29
2022-11-24T03:00:03.673Z,7.38
2022-11-24T03:02:30.319Z,7.71
2022-11-24T03:05:02.204Z,7.55
2022-11-24T03:07:29.049Z,7.45
2022-11-24T03:09:58.983Z,7.80
2022-11-24T03:12:27.310Z,7.65
2022-11-24T03:14:54.003Z,7.69
2022-11-24T03:17:20.811Z,7.67
2022-11-24T03:19:47.494Z,7.46
2022-11-24T03:22:14.726Z,7.69
2022-11-24T03:24:41.469Z,7.54
2022-11-24T03:27:08.174Z,7.45
2022-11-24T03:29:34.904Z,7.51
2022-11-24T03:34:51.826Z,7.59
2022-11-24T03:37:51.528Z,7.45
2022-11-24T03:40:29.927Z,7.34
2022-11-24T03:43:55.530Z,7.11
2022-11-24T03:46:23.884Z,6.66
2022-11-24T03:48:52.254Z,7.10
2022-11-24T03:54:22.979Z,7.06
2022-11-24T03:56:49.818Z,6.77
2022-11-24T03:59:17.053Z,6.91
2022-11-24T04:01:43.839Z,6.85
2022-11-24T04:04:12.137Z,6.99
2022-11-24T04:06:39.645Z,6.88
2022-11-24T04:09:09.476Z,7.15
2022-11-24T04:11:54.786Z,6.98
2022-11-24T04:14:23.642Z,7.10
2022-11-24T04:16:50.359Z,7.08
2022-11-24T04:19:17.162Z,7.08
2022-11-24T04:21:45.937Z,7.20
2022-11-24T04:24:12.654Z,7.05
2022-11-24T04:26:39.319Z,7.34
2022-11-24T04:29:06.168Z,7.32
2022-11-24T04:31:33.200Z,7.40
2022-11-24T04:34:00.255Z,7.41
2022-11-24T04:36:26.958Z,7.39
2022-11-24T04:39:19.960Z,7.41
2022-11-24T04:41:41.353Z,7.55
2022-11-24T04:44:07.967Z,7.49
2022-11-24T04:46:36.817Z,7.42
2022-11-24T04:49:03.564Z,7.61
2022-11-24T04:51:30.383Z,7.67
2022-11-24T04:53:57.176Z,7.73
2022-11-24T04:56:23.949Z,7.64
2022-11-24T04:58:50.657Z,7.69
2022-11-24T05:01:17.402Z,7.63
2022-11-24T05:03:44.323Z,7.51
2022-11-24T05:06:11.399Z,7.70
2022-11-24T05:08:38.076Z,7.60
2022-11-24T05:11:06.683Z,7.77
2022-11-24T05:13:33.575Z,7.88
2022-11-24T05:16:01.839Z,7.68
2022-11-24T05:18:29.054Z,7.75
2022-11-24T05:20:56.108Z,7.55
2022-11-24T05:23:22.877Z,7.61
2022-11-24T05:25:49.674Z,7.48
2022-11-24T05:28:17.093Z,7.51
2022-11-24T05:30:43.856Z,7.71
2022-11-24T05:33:19.312Z,7.88
2022-11-24T05:35:49.115Z,7.89
2022-11-24T05:38:17.723Z,7.89
2022-11-24T05:40:45.939Z,7.80
2022-11-24T05:43:16.906Z,7.77
2022-11-24T05:45:44.800Z,8.04
2022-11-24T05:48:14.731Z,7.82
2022-11-24T05:50:41.877Z,7.65
2022-11-24T05:53:11.133Z,7.79
2022-11-24T05:55:38.703Z,7.76
2022-11-24T05:58:07.587Z,7.87
2022-11-24T06:00:36.206Z,7.85
2022-11-24T06:03:03.809Z,7.89
2022-11-24T06:05:32.766Z,7.99
2022-11-24T06:08:00.827Z,7.89
2022-11-24T06:10:28.475Z,7.84
2022-11-24T06:12:55.898Z,7.98
2022-11-24T06:15:25.257Z,7.84
2022-11-24T06:17:56.048Z,8.11
2022-11-24T06:20:32.269Z,8.04
2022-11-24T06:23:01.770Z,7.92
2022-11-24T06:25:29.121Z,7.84
2022-11-24T06:27:55.952Z,7.89
2022-11-24T06:30:22.628Z,7.83
2022-11-24T06:32:50.099Z,7.66
2022-11-24T06:35:17.249Z,7.66
2022-11-24T06:37:44.025Z,7.72
2022-11-24T06:40:11.122Z,7.93
2022-11-24T06:42:40.479Z,7.78
2022-11-24T06:45:09.556Z,7.76
2022-11-24T06:47:37.026Z,8.02
2022-11-24T06:50:04.156Z,8.02
2022-11-24T06:52:30.911Z,7.99
2022-11-24T06:54:57.580Z,8.12
2022-11-24T06:57:24.380Z,8.29
2022-11-24T06:59:58.570Z,8.59
2022-11-24T07:02:25.331Z,8.29
2022-11-24T07:04:51.991Z,8.27
2022-11-24T07:07:18.846Z,8.27
2022-11-24T07:09:45.509Z,8.32
2022-11-24T07:12:12.228Z,8.40
2022-11-24T07:14:38.931Z,8.44
2022-11-24T07:17:05.607Z,8.44
2022-11-24T07:19:34.393Z,8.41
2022-11-24T07:22:04.271Z,8.56
2022-11-24T07:24:30.889Z,8.46
2022-11-24T07:26:57.549Z,8.53
2022-11-24T07:29:31.314Z,8.52
2022-11-24T07:32:03.711Z,8.43
2022-11-24T07:34:39.267Z,8.62
2022-11-24T07:37:06.123Z,8.61
2022-11-24T07:39:32.921Z,8.55
2022-11-24T07:42:00.495Z,8.68
2022-11-24T07:44:27.443Z,8.67
2022-11-24T07:46:57.268Z,8.83
2022-11-24T07:49:23.937Z,8.78
2022-11-24T07:51:50.644Z,8.87
2022-11-24T07:54:17.357Z,8.88
2022-11-24T07:56:44.022Z,8.87
2022-11-24T07:59:10.823Z,8.93
2022-11-24T08:01:37.631Z,9.06
2022-11-24T08:04:07.033Z,9.28
2022-11-24T08:06:39.692Z,9.21
2022-11-24T08:09:09.976Z,9.30
2022-11-24T08:11:36.833Z,9.23
2022-11-24T08:14:06.067Z,9.31
2022-11-24T08:16:32.822Z,9.18
2022-11-24T08:18:59.515Z,9.29
2022-11-24T08:21:26.664Z,9.23
2022-11-24T08:23:57.533Z,9.40
2022-11-24T08:26:25.562Z,9.31
2022-11-24T08:28:57.959Z,9.37
2022-11-24T08:31:34.908Z,9.29
2022-11-24T08:34:05.927Z,9.36
2022-11-24T08:36:35.744Z,9.61
2022-11-24T08:39:02.790Z,9.52
2022-11-24T08:41:30.209Z,9.50
2022-11-24T08:43:56.874Z,9.46
2022-11-24T08:46:24.106Z,9.38
2022-11-24T08:48:53.605Z,9.59
2022-11-24T08:51:25.058Z,9.90
2022-11-24T08:53:58.344Z,10.04
2022-11-24T08:56:27.145Z,9.88
2022-11-24T08:58:54.840Z,9.90
2022-11-24T09:01:22.614Z,9.93
2022-11-24T09:03:51.233Z,9.96
2022-11-24T09:06:24.999Z,10.23
2022-11-24T09:08:56.307Z,10.31
2022-11-24T09:11:24.767Z,10.19
2022-11-24T09:13:51.766Z,10.21
2022-11-24T09:16:21.476Z,10.37
2022-11-24T09:18:54.559Z,10.28
2022-11-24T09:21:22.119Z,10.31
2022-11-24T09:23:50.689Z,10.32
2022-11-24T09:26:26.663Z,10.56
2022-11-24T09:28:55.152Z,10.25
2022-11-24T09:31:27.817Z,10.35
2022-11-24T09:33:55.837Z,10.42
2022-11-24T09:36:25.622Z,10.62
2022-11-24T09:38:52.577Z,10.14
2022-11-24T09:41:50.209Z,10.79
2022-11-24T09:44:37.874Z,10.40
2022-11-24T09:47:37.795Z,10.61
2022-11-24T09:50:18.514Z,10.57
2022-11-24T09:53:03.596Z,10.76
2022-11-24T09:55:31.635Z,10.44
2022-11-24T09:58:12.585Z,10.78
2022-11-24T10:00:40.387Z,10.66
2022-11-24T10:03:16.294Z,10.74
2022-11-24T10:05:43.561Z,10.64
2022-11-24T10:08:41.036Z,10.95
2022-11-24T10:11:16.640Z,10.62
2022-11-24T10:14:22.355Z,11.07
2022-11-24T10:17:00.273Z,11.08
2022-11-24T10:19:37.343Z,10.77
2022-11-24T10:22:21.342Z,11.05
2022-11-24T10:24:48.045Z,10.83
2022-11-24T10:27:28.677Z,11.29
2022-11-24T10:29:56.235Z,11.23
2022-11-24T10:32:40.239Z,11.58
2022-11-24T10:35:20.330Z,12.17
2022-11-24T10:37:55.518Z,11.89
2022-11-24T10:43:19.170Z,13.45
2022-11-24T10:45:46.179Z,14.10
2022-11-24T10:48:27.273Z,14.90
2022-11-24T10:51:03.111Z,15.43
2022-11-24T10:53:35.591Z,15.02
2022-11-24T10:56:05.014Z,14.39
2022-11-24T10:58:40.145Z,13.58
2022-11-24T11:01:15.850Z,13.14
2022-11-24T11:03:51.125Z,12.79
2022-11-24T11:06:24.075Z,13.78
2022-11-24T11:09:10.732Z,15.52
2022-11-24T11:11:43.010Z,16.75
2022-11-24T11:14:15.353Z,17.06
2022-11-24T11:16:53.423Z,16.49
2022-11-24T11:19:49.823Z,15.69
2022-11-24T11:22:30.895Z,14.98
2022-11-24T11:25:06.131Z,14.31
2022-11-24T11:27:32.952Z,13.88
2022-11-24T11:36:13.763Z,12.97
2022-11-24T11:38:43.740Z,13.04
2022-11-24T11:41:20.650Z,12.94
2022-11-24T11:43:53.492Z,13.07
2022-11-24T11:46:21.242Z,12.90
2022-11-24T11:48:48.340Z,12.68
2022-11-24T11:51:52.769Z,12.93
2022-11-24T11:54:25.637Z,12.42
2022-11-24T11:57:11.319Z,12.59
2022-11-24T11:59:46.895Z,12.49
2022-11-24T12:02:16.554Z,12.67
2022-11-24T12:04:53.692Z,12.84
2022-11-24T12:07:56.194Z,12.78
2022-11-24T12:10:38.991Z,12.73
2022-11-24T12:13:26.376Z,12.63
2022-11-24T12:15:56.979Z,12.63
2022-11-24T12:18:57.684Z,13.15
2022-11-24T12:21:38.950Z,13.13
2022-11-24T12:24:16.227Z,13.82
2022-11-24T12:27:05.788Z,15.53
2022-11-24T12:29:41.733Z,16.55
2022-11-24T12:32:19.992Z,16.36
2022-11-24T12:34:53.036Z,16.73
2022-11-24T12:37:37.212Z,15.71
2022-11-24T12:40:23.524Z,14.90
2022-11-24T12:43:03.392Z,14.44
2022-11-24T12:45:42.918Z,13.76
2022-11-24T12:48:16.465Z,13.85
2022-11-24T12:50:44.448Z,13.36
2022-11-24T12:53:16.209Z,12.85
2022-11-24T12:55:43.867Z,12.91
2022-11-24T12:58:14.044Z,13.05
2022-11-24T13:00:57.938Z,12.86
2022-11-24T13:03:43.347Z,12.86
2022-11-24T13:06:28.328Z,13.28
2022-11-24T13:08:56.784Z,12.88
2022-11-24T13:11:23.518Z,13.05
2022-11-24T13:14:00.665Z,13.34
2022-11-24T13:16:38.675Z,13.22
2022-11-24T13:19:17.708Z,13.31
2022-11-24T13:21:45.570Z,13.38
2022-11-24T13:24:19.549Z,13.83
2022-11-24T13:26:54.732Z,14.03
2022-11-24T13:29:33.715Z,14.81
2022-11-24T13:32:06.558Z,15.03
2022-11-24T13:34:39.741Z,15.60
2022-11-24T13:37:35.421Z,15.17
2022-11-24T13:40:22.982Z,14.85
2022-11-24T13:43:01.412Z,15.02
2022-11-24T13:45:41.214Z,15.30
2022-11-24T13:48:21.017Z,15.81
2022-11-24T13:50:52.108Z,16.07
2022-11-24T13:53:32.140Z,16.65
2022-11-24T13:56:11.666Z,16.86
2022-11-24T13:58:59.813Z,15.31
2022-11-24T14:01:30.235Z,14.84
2022-11-24T14:04:36.003Z,14.81
2022-11-24T14:09:53.478Z,13.70
2022-11-24T14:12:27.860Z,13.43
2022-11-24T14:15:25.376Z,13.49
2022-11-24T14:17:52.090Z,13.23
2022-11-24T14:20:24.862Z,13.09
2022-11-24T14:22:52.138Z,12.66
2022-11-24T14:25:32.440Z,12.69
2022-11-24T14:28:15.526Z,12.41
2022-11-24T14:30:42.400Z,12.42
2022-11-24T14:33:18.569Z,12.57
2022-11-24T14:35:47.651Z,12.44
2022-11-24T14:38:14.622Z,12.03
2022-11-24T14:40:51.717Z,12.44
2022-11-24T14:43:31.904Z,12.54
2022-11-24T14:46:06.276Z,12.37
2022-11-24T14:48:53.099Z,12.47
2022-11-24T14:51:35.816Z,12.08
2022-11-24T14:54:13.684Z,12.11
2022-11-24T14:56:40.878Z,12.00
2022-11-24T14:59:25.867Z,12.13
2022-11-24T15:01:52.761Z,11.86
2022-11-24T15:05:02.618Z,12.14
2022-11-24T15:07:30.685Z,11.84
2022-11-24T15:09:59.850Z,11.86
2022-11-24T15:12:36.243Z,11.61
2022-11-24T15:15:06.794Z,11.88
2022-11-24T15:17:34.217Z,11.78
2022-11-24T15:20:09.321Z,11.91
2022-11-24T15:22:42.029Z,12.00
2022-11-24T15:25:36.845Z,12.13
2022-11-24T15:28:03.648Z,11.83
2022-11-24T15:30:34.821Z,11.77
2022-11-24T15:33:02.091Z,11.38
2022-11-24T15:35:32.826Z,11.58
2022-11-24T15:37:59.605Z,11.27
2022-11-24T15:40:26.343Z,11.35
2022-11-24T15:42:55.103Z,11.44
2022-11-24T15:45:23.978Z,11.47
2022-11-24T15:47:59.966Z,11.81
2022-11-24T15:50:28.774Z,11.66
2022-11-24T15:52:57.269Z,11.63
2022-11-24T15:55:24.072Z,11.53
2022-11-24T15:57:50.794Z,11.50
2022-11-24T16:00:20.479Z,11.62
2022-11-24T16:02:47.667Z,11.65
2022-11-24T16:05:15.843Z,11.63
2022-11-24T16:07:43.973Z,11.65
2022-11-24T16:10:25.925Z,11.54
2022-11-24T16:12:54.433Z,11.35
2022-11-24T16:21:26.227Z,11.58
2022-11-24T16:24:00.974Z,11.47
2022-11-24T16:26:33.364Z,11.10
2022-11-24T16:32:10.953Z,10.80
2022-11-24T16:34:37.705Z,10.78
2022-11-24T16:37:04.468Z,10.98
2022-11-24T16:39:31.218Z,10.78
2022-11-24T16:42:00.908Z,10.74
2022-11-24T16:44:27.767Z,10.51
2022-11-24T16:46:54.875Z,10.20
2022-11-24T16:49:22.088Z,9.97
2022-11-24T16:51:51.409Z,10.13
2022-11-24T16:54:18.298Z,10.08
2022-11-24T16:56:44.999Z,9.91
2022-11-24T16:59:11.981Z,9.83
2022-11-24T17:01:40.378Z,9.98
2022-11-24T17:04:12.456Z,9.58
2022-11-24T17:06:45.628Z,9.52
2022-11-24T17:09:12.356Z,9.23
2022-11-24T17:11:39.048Z,9.46
2022-11-24T17:14:06.069Z,9.02
2022-11-24T17:16:37.601Z,8.41
2022-11-24T17:19:05.594Z,8.07
2022-11-24T17:21:35.469Z,8.01
2022-11-24T17:24:05.609Z,7.91
2022-11-24T17:26:33.281Z,7.99
2022-11-24T17:29:02.170Z,8.86
2022-11-24T17:31:37.481Z,8.91
2022-11-24T17:34:05.250Z,8.88
2022-11-24T17:36:33.673Z,8.88
2022-11-24T17:39:01.269Z,8.84
2022-11-24T17:41:32.142Z,9.07
2022-11-24T17:43:58.930Z,8.90
2022-11-24T17:46:27.296Z,9.02
2022-11-24T17:48:54.432Z,8.94
2022-11-24T17:51:23.545Z,9.07
2022-11-24T17:53:52.226Z,9.12
2022-11-24T17:56:23.701Z,9.24
2022-11-24T17:58:55.312Z,9.34
2022-11-24T18:01:22.668Z,9.08
2022-11-24T18:03:53.518Z,8.86
2022-11-24T18:06:21.555Z,8.51
2022-11-24T18:08:48.323Z,8.60
2022-11-24T18:11:28.849Z,8.93
2022-11-24T18:14:01.093Z,8.81
2022-11-24T18:16:34.814Z,8.86
2022-11-24T18:19:11.664Z,8.78
2022-11-24T18:21:43.828Z,8.98
2022-11-24T18:24:12.560Z,8.72
2022-11-24T18:26:44.620Z,9.11
2022-11-24T18:29:11.933Z,8.96
2022-11-24T18:31:39.264Z,9.17
2022-11-24T18:34:06.778Z,9.06
2022-11-24T18:36:34.917Z,8.92
2022-11-24T18:39:03.883Z,8.73
2022-11-24T18:41:30.755Z,8.63
2022-11-24T18:44:03.167Z,8.63
2022-11-24T18:46:29.981Z,8.35
2022-11-24T18:48:56.853Z,8.35
2022-11-24T18:51:23.689Z,8.39
2022-11-24T18:53:54.589Z,8.44
2022-11-24T18:56:22.501Z,8.52
2022-11-24T18:58:53.813Z,8.50
2022-11-24T19:01:24.190Z,8.41
2022-11-24T19:03:56.360Z,8.27
2022-11-24T19:06:32.371Z,8.07
2022-11-24T19:09:02.185Z,8.34
2022-11-24T19:11:35.296Z,8.35
2022-11-24T19:14:07.438Z,8.44
2022-11-24T19:16:34.401Z,8.12
2022-11-24T19:19:02.633Z,8.35
2022-11-24T19:21:34.573Z,8.40
2022-11-24T19:24:05.255Z,8.30
2022-11-24T19:26:36.912Z,8.38
2022-11-24T19:29:07.219Z,8.43
2022-11-24T19:31:35.347Z,8.17
2022-11-24T19:34:08.005Z,8.28
2022-11-24T19:36:35.205Z,8.39
2022-11-24T19:39:04.876Z,8.43
2022-11-24T19:41:35.021Z,9.01
2022-11-24T19:44:01.979Z,9.13
2022-11-24T19:46:29.832Z,8.91
2022-11-24T19:49:04.713Z,9.40
2022-11-24T19:51:33.545Z,9.13
2022-11-24T19:54:00.694Z,9.15
2022-11-24T19:56:30.037Z,9.30
2022-11-24T19:58:59.988Z,9.18
2022-11-24T20:01:32.008Z,9.47
2022-11-24T20:04:00.345Z,9.50
2022-11-24T20:06:29.606Z,9.42
2022-11-24T20:08:58.888Z,9.43
2022-11-24T20:11:25.630Z,9.54
2022-11-24T20:13:52.445Z,9.66
2022-11-24T20:16:30.017Z,9.63
2022-11-24T20:18:58.830Z,9.70
2022-11-24T20:21:33.896Z,9.72
2022-11-24T20:24:15.422Z,9.95
2022-11-24T20:26:45.090Z,9.70
2022-11-24T20:29:13.391Z,9.81
2022-11-24T20:31:48.348Z,9.86
2022-11-24T20:34:15.679Z,9.70
2022-11-24T20:36:45.674Z,9.81
2022-11-24T20:39:19.006Z,9.90
2022-11-24T20:41:45.956Z,9.84
2022-11-24T20:44:15.601Z,9.88
2022-11-24T20:46:44.392Z,9.89
2022-11-24T20:49:14.644Z,9.94
2022-11-24T20:51:44.263Z,9.93
2022-11-24T20:54:15.974Z,10.12
2022-11-24T20:56:44.723Z,10.02
2022-11-24T20:59:35.904Z,10.18
2022-11-24T21:02:02.743Z,10.03
2022-11-24T21:04:29.466Z,10.00
2022-11-24T21:06:56.470Z,9.88
2022-11-24T21:09:23.409Z,9.79
2022-11-24T21:11:50.224Z,9.86
2022-11-24T21:14:16.917Z,9.86
2022-11-24T21:16:44.727Z,9.90
2022-11-24T21:19:14.187Z,9.91
2022-11-24T21:21:42.784Z,9.77
2022-11-24T21:24:17.606Z,9.75
2022-11-24T21:26:47.831Z,9.47
2022-11-24T21:29:17.336Z,9.22
2022-11-24T21:31:47.674Z,9.21
2022-11-24T21:34:16.471Z,8.95
2022-11-24T21:36:45.152Z,8.70
2022-11-24T21:39:13.903Z,8.76
2022-11-24T21:41:41.465Z,8.81
2022-11-24T21:44:08.968Z,9.21
2022-11-24T21:46:42.455Z,8.76
2022-11-24T21:49:15.791Z,8.86
2022-11-24T21:51:44.718Z,8.56
2022-11-24T21:54:11.398Z,8.38
2022-11-24T21:56:41.039Z,8.33
2022-11-24T21:59:07.787Z,8.28
2022-11-24T22:01:34.574Z,7.90
2022-11-24T22:04:02.822Z,8.21
2022-11-24T22:06:29.825Z,7.91
2022-11-24T22:08:56.509Z,7.48
2022-11-24T22:11:24.858Z,7.71
2022-11-24T22:13:52.239Z,7.87
2022-11-24T22:16:21.694Z,7.63
2022-11-24T22:18:48.974Z,7.42
2022-11-24T22:21:19.094Z,7.52
2022-11-24T22:23:46.357Z,7.21
2022-11-24T22:26:18.888Z,6.89
2022-11-24T22:28:46.455Z,6.43
2022-11-24T22:31:17.750Z,6.09
2022-11-24T22:33:45.082Z,6.36
2022-11-24T22:36:15.662Z,6.17
2022-11-24T22:38:43.042Z,6.36
2022-11-24T22:41:15.361Z,6.42
2022-11-24T22:43:44.055Z,6.37
2022-11-24T22:46:13.541Z,6.22
2022-11-24T22:48:45.093Z,6.41
2022-11-24T22:51:14.603Z,6.00
2022-11-24T22:53:42.202Z,5.90
2022-11-24T22:56:12.042Z,6.47
2022-11-24T22:58:42.216Z,6.44
2022-11-24T23:01:12.591Z,6.33
2022-11-24T23:03:40.097Z,6.41
2022-11-24T23:06:10.763Z,6.41
2022-11-24T23:08:39.843Z,6.52
2022-11-24T23:11:12.548Z,6.30
2022-11-24T23:13:39.605Z,6.23
2022-11-24T23:16:15.417Z,6.30
2022-11-24T23:18:43.434Z,6.29
2022-11-24T23:21:21.692Z,6.52
2022-11-24T23:23:48.722Z,6.70
2022-11-24T23:26:27.090Z,6.55
2022-11-24T23:28:57.964Z,6.43
2022-11-24T23:31:29.802Z,6.17
2022-11-24T23:34:02.471Z,6.24
2022-11-24T23:36:30.766Z,6.27
2022-11-24T23:39:05.735Z,6.22
2022-11-24T23:41:32.569Z,6.38
2022-11-24T23:44:00.226Z,5.97
2022-11-24T23:46:28.266Z,5.94
2022-11-24T23:48:55.968Z,5.97
2022-11-24T23:51:23.651Z,6.12
2022-11-24T23:53:50.996Z,5.85
2022-11-24T23:56:22.546Z,5.59
2022-11-24T23:58:49.598Z,5.78
